Time;durP1;ratioP1;P1;durP2;ratioP2;P2;SDS_P1;SDS_P2;PMS_P1;PMS_P2;Temp;Humidity;BMP_temperature;BMP_pressure;BME280_temperature;BME280_humidity;BME280_pressure;Samples;Min_cycle;Max_cycle;Signal;HPM_P1;HPM_P2
2022/02/27 00:00:38;;;;;;;12.68;7.30;;;;;;;4.54;53.22;101566.31;5111413;28;20042;-77
2022/02/27 00:03:05;;;;;;;16.20;7.75;;;;;;;4.50;53.44;101561.19;5111274;28;20080;-77
2022/02/27 00:05:31;;;;;;;16.20;8.82;;;;;;;4.40;53.36;101552.75;5111338;27;20035;-72
2022/02/27 00:07:56;;;;;;;17.45;9.10;;;;;;;4.51;53.60;101560.25;5108937;28;20032;-70
2022/02/27 00:10:22;;;;;;;20.60;9.40;;;;;;;4.43;54.08;101549.97;5110209;28;20127;-70
2022/02/27 00:12:51;;;;;;;20.50;9.18;;;;;;;4.48;54.39;101563.91;5110096;28;20024;-71
2022/02/27 00:15:17;;;;;;;19.20;8.95;;;;;;;4.44;54.69;101557.00;5110161;28;20448;-72
2022/02/27 00:17:42;;;;;;;14.57;8.43;;;;;;;4.39;55.05;101547.53;5109822;28;20036;-71
2022/02/27 00:20:09;;;;;;;15.57;9.13;;;;;;;4.45;55.17;101569.34;5110048;28;20043;-72
2022/02/27 00:22:35;;;;;;;14.75;7.53;;;;;;;4.45;55.31;101571.16;5108854;28;20106;-71
2022/02/27 00:25:01;;;;;;;13.00;7.35;;;;;;;4.44;55.48;101566.75;5108648;28;20114;-71
2022/02/27 00:27:27;;;;;;;13.57;7.53;;;;;;;4.41;55.83;101551.81;5108837;28;20032;-71
2022/02/27 00:29:52;;;;;;;16.55;7.97;;;;;;;4.47;56.53;101566.63;5109591;28;20023;-72
2022/02/27 00:32:18;;;;;;;16.13;8.85;;;;;;;4.40;56.80;101544.81;5109927;28;20088;-71
2022/02/27 00:34:43;;;;;;;14.13;7.57;;;;;;;4.45;57.00;101553.41;5109782;28;20051;-72
2022/02/27 00:37:09;;;;;;;12.63;7.82;;;;;;;4.55;58.07;101565.38;5109579;28;20530;-71
2022/02/27 00:39:34;;;;;;;13.18;7.90;;;;;;;4.48;59.22;101545.31;5109798;28;20111;-72
2022/02/27 00:42:00;;;;;;;14.68;8.43;;;;;;;4.57;60.64;101568.84;5109670;28;20034;-71
2022/02/27 00:44:25;;;;;;;13.32;7.72;;;;;;;4.49;62.34;101560.31;5109477;28;20024;-70
2022/02/27 00:46:51;;;;;;;14.55;8.75;;;;;;;4.40;63.95;101550.09;5108086;28;20059;-71
2022/02/27 00:49:17;;;;;;;14.88;8.38;;;;;;;4.51;64.55;101568.22;5109456;28;20040;-71
2022/02/27 00:51:43;;;;;;;15.10;8.77;;;;;;;4.50;64.30;101558.53;5108467;28;20384;-71
2022/02/27 00:54:08;;;;;;;15.55;8.20;;;;;;;4.30;64.75;101526.66;5109168;28;20558;-71
2022/02/27 00:56:34;;;;;;;15.00;9.32;;;;;;;4.46;64.55;101557.78;5109336;28;20046;-71
2022/02/27 00:58:59;;;;;;;16.83;8.82;;;;;;;4.45;65.00;101555.22;5109562;28;20055;-71
2022/02/27 01:01:25;;;;;;;14.52;8.52;;;;;;;4.40;65.21;101558.06;5108920;28;20031;-71
2022/02/27 01:03:52;;;;;;;16.10;10.48;;;;;;;4.43;64.91;101554.41;5109372;28;20019;-72
2022/02/27 01:06:17;;;;;;;15.40;9.10;;;;;;;4.36;65.58;101556.47;5109301;28;20028;-71
2022/02/27 01:08:43;;;;;;;15.73;8.98;;;;;;;4.39;65.37;101556.31;5107512;28;20072;-71
2022/02/27 01:11:10;;;;;;;14.43;8.52;;;;;;;4.40;65.08;101560.72;5108886;28;20031;-71
2022/02/27 01:13:36;;;;;;;21.02;9.00;;;;;;;4.39;65.27;101550.16;5108936;28;20052;-71
2022/02/27 01:16:02;;;;;;;15.45;8.57;;;;;;;4.34;65.11;101547.72;5109635;28;20066;-79
2022/02/27 01:18:27;;;;;;;17.08;9.63;;;;;;;4.39;65.44;101548.34;5109980;28;20110;-76
2022/02/27 01:20:53;;;;;;;16.90;8.95;;;;;;;4.40;65.52;101549.22;5109696;28;20041;-77
2022/02/27 01:23:18;;;;;;;16.02;8.48;;;;;;;4.41;65.38;101545.63;5108547;28;20028;-77
2022/02/27 01:25:44;;;;;;;17.15;9.45;;;;;;;4.34;65.14;101529.13;5109639;28;20029;-78
2022/02/27 01:28:09;;;;;;;15.80;8.98;;;;;;;4.34;64.94;101534.44;5109573;28;20080;-78
2022/02/27 01:30:34;;;;;;;16.70;8.77;;;;;;;4.29;64.25;101523.13;5109435;28;20027;-78
2022/02/27 01:33:00;;;;;;;13.85;8.65;;;;;;;4.37;64.08;101542.28;5109396;28;20073;-78
2022/02/27 01:35:26;;;;;;;14.50;7.85;;;;;;;4.31;63.80;101534.56;5109383;28;20028;-77
2022/02/27 01:37:52;;;;;;;14.57;8.18;;;;;;;4.31;63.56;101523.06;5109394;28;20437;-78
2022/02/27 01:40:17;;;;;;;13.63;7.55;;;;;;;4.34;63.18;101539.75;5108315;28;20088;-78
2022/02/27 01:42:43;;;;;;;13.82;7.78;;;;;;;4.32;63.77;101541.59;5109440;28;20080;-78
2022/02/27 01:45:09;;;;;;;18.05;8.15;;;;;;;4.26;64.75;101531.22;5109646;28;20035;-77
2022/02/27 01:47:35;;;;;;;16.10;8.20;;;;;;;4.24;65.73;101518.94;5108432;28;20080;-76
2022/02/27 01:50:00;;;;;;;18.92;9.02;;;;;;;4.35;66.45;101544.13;5108202;28;20038;-77
2022/02/27 01:52:26;;;;;;;16.00;9.10;;;;;;;4.25;67.65;101529.50;5109836;28;20063;-77
2022/02/27 01:54:51;;;;;;;18.20;9.15;;;;;;;4.32;67.74;101530.13;5109082;28;20061;-77
2022/02/27 01:57:17;;;;;;;15.00;8.77;;;;;;;4.30;68.13;101527.53;5109650;28;20108;-77
2022/02/27 01:59:43;;;;;;;16.33;9.13;;;;;;;4.34;68.45;101521.16;5109367;28;20054;-78
2022/02/27 02:02:09;;;;;;;16.52;8.38;;;;;;;4.32;69.22;101520.34;5108113;28;20023;-77
2022/02/27 02:04:34;;;;;;;13.93;8.27;;;;;;;4.37;70.24;101533.44;5112944;28;20019;-76
2022/02/27 02:07:01;;;;;;;13.60;8.63;;;;;;;4.32;70.99;101508.88;5113821;28;20718;-77
2022/02/27 02:09:26;;;;;;;12.13;7.93;;;;;;;4.36;71.75;101516.63;5113744;28;20088;-78
2022/02/27 02:11:52;;;;;;;16.00;8.18;;;;;;;4.33;72.87;101514.09;5112160;28;20015;-76
2022/02/27 02:14:17;;;;;;;13.43;8.10;;;;;;;4.27;73.25;101494.94;5113452;28;20039;-71
2022/02/27 02:16:46;;;;;;;19.65;7.80;;;;;;;4.38;74.47;101521.88;5112264;28;20045;-72
2022/02/27 02:19:16;;;;;;;22.25;7.57;;;;;;;4.34;75.86;101517.63;5111094;28;20031;-72
2022/02/27 02:21:44;;;;;;;14.00;8.20;;;;;;;4.32;77.08;101515.03;5112031;27;20081;-72
2022/02/27 02:24:11;;;;;;;17.10;7.55;;;;;;;4.19;77.67;101500.56;5112398;28;20112;-71
2022/02/27 02:26:38;;;;;;;13.32;8.27;;;;;;;4.31;78.06;101523.06;5112353;28;20028;-71
2022/02/27 02:29:05;;;;;;;15.82;7.85;;;;;;;4.33;78.30;101531.84;5112349;28;20024;-71
2022/02/27 02:31:33;;;;;;;13.48;8.68;;;;;;;4.26;78.91;101523.25;5112105;28;20057;-71
2022/02/27 02:34:02;;;;;;;16.10;7.65;;;;;;;4.26;78.88;101515.28;5110524;28;20045;-71
2022/02/27 02:36:28;;;;;;;11.77;7.90;;;;;;;4.16;79.72;101495.38;5112123;28;20438;-71
2022/02/27 02:38:53;;;;;;;12.63;7.65;;;;;;;4.16;79.80;101492.72;5111772;27;20043;-72
2022/02/27 02:41:18;;;;;;;14.07;7.95;;;;;;;4.24;80.24;101495.06;5112119;28;20062;-70
2022/02/27 02:43:47;;;;;;;13.32;7.72;;;;;;;4.29;80.85;101511.66;5112021;28;20051;-71
2022/02/27 02:46:13;;;;;;;18.23;8.13;;;;;;;4.31;80.67;101512.44;5111845;28;20084;-71
2022/02/27 02:48:38;;;;;;;13.32;7.50;;;;;;;4.24;81.03;101500.38;5112001;28;20474;-71
2022/02/27 02:51:04;;;;;;;18.15;7.97;;;;;;;4.17;81.55;101488.28;5112053;28;20080;-71
2022/02/27 02:53:34;;;;;;;15.55;7.70;;;;;;;4.25;81.69;101508.25;5111776;28;20024;-72
2022/02/27 02:56:01;;;;;;;14.57;7.47;;;;;;;4.15;81.85;101498.09;5111561;27;20036;-70
2022/02/27 02:58:27;;;;;;;14.73;7.72;;;;;;;4.26;81.76;101512.63;5111489;27;20153;-70
2022/02/27 03:00:52;;;;;;;15.35;7.85;;;;;;;4.18;81.81;101500.63;5111639;28;20035;-72
2022/02/27 03:03:18;;;;;;;14.55;7.63;;;;;;;4.24;82.14;101500.38;5110247;28;20026;-71
2022/02/27 03:05:43;;;;;;;14.98;8.25;;;;;;;4.19;82.36;101497.91;5111427;28;20101;-70
2022/02/27 03:08:09;;;;;;;11.55;7.57;;;;;;;4.22;82.67;101508.41;5111558;28;20040;-71
2022/02/27 03:10:34;;;;;;;15.30;7.72;;;;;;;4.26;82.27;101511.78;5111797;28;20031;-71
2022/02/27 03:12:59;;;;;;;13.88;8.13;;;;;;;4.27;82.61;101510.84;5111239;28;20019;-70
2022/02/27 03:15:25;;;;;;;15.23;7.15;;;;;;;4.21;82.34;101490.75;5110127;28;20468;-71
2022/02/27 03:17:50;;;;;;;12.32;7.65;;;;;;;4.32;82.45;101504.41;5111303;28;20509;-71
2022/02/27 03:20:16;;;;;;;11.52;6.78;;;;;;;4.27;82.24;101509.06;5111060;28;20043;-70
2022/02/27 03:22:41;;;;;;;14.15;7.55;;;;;;;4.24;82.02;101500.38;5111186;28;20535;-71
2022/02/27 03:25:07;;;;;;;10.35;7.53;;;;;;;4.33;81.76;101514.09;5111384;28;20076;-71
2022/02/27 03:27:32;;;;;;;13.38;7.35;;;;;;;4.34;81.89;101514.97;5111222;28;20467;-71
2022/02/27 03:29:58;;;;;;;12.80;7.47;;;;;;;4.35;81.75;101522.00;5110890;28;20023;-70
2022/02/27 03:32:23;;;;;;;11.77;7.25;;;;;;;4.33;81.86;101510.59;5111217;28;20035;-72
2022/02/27 03:34:49;;;;;;;12.45;7.35;;;;;;;4.30;81.86;101505.41;5110752;28;20035;-71
2022/02/27 03:37:14;;;;;;;15.00;7.95;;;;;;;4.31;81.65;101509.78;5110764;27;20031;-71
2022/02/27 03:39:39;;;;;;;15.68;7.75;;;;;;;4.39;81.67;101518.31;5110977;28;20023;-71
2022/02/27 03:42:05;;;;;;;12.70;6.60;;;;;;;4.41;81.21;101519.94;5110999;28;20039;-70
2022/02/27 03:44:30;;;;;;;12.52;7.85;;;;;;;4.42;81.36;101529.63;5110975;28;20035;-72
2022/02/27 03:46:56;;;;;;;13.30;6.90;;;;;;;4.42;81.18;101515.50;5110763;28;20394;-70
2022/02/27 03:49:22;;;;;;;10.07;6.80;;;;;;;4.41;81.05;101527.03;5110553;28;20028;-71
2022/02/27 03:51:47;;;;;;;13.75;7.65;;;;;;;4.41;80.59;101519.94;5110446;28;20587;-71
2022/02/27 03:54:12;;;;;;;15.70;8.43;;;;;;;4.37;80.82;101523.69;5110620;28;20026;-72
2022/02/27 03:56:38;;;;;;;14.52;7.05;;;;;;;4.39;80.77;101520.97;5111034;28;20394;-71
2022/02/27 03:59:03;;;;;;;12.43;6.93;;;;;;;4.52;80.62;101554.03;5110653;28;20032;-78
2022/02/27 04:01:29;;;;;;;14.15;7.45;;;;;;;4.49;80.46;101532.91;5111531;28;20498;-78
2022/02/27 04:03:54;;;;;;;10.13;6.22;;;;;;;4.51;80.29;101528.38;5111329;28;20108;-76
2022/02/27 04:06:20;;;;;;;12.07;6.72;;;;;;;4.53;79.98;101542.47;5111577;28;20055;-77
2022/02/27 04:08:45;;;;;;;9.80;6.47;;;;;;;4.55;79.75;101532.66;5111312;28;20034;-77
2022/02/27 04:11:11;;;;;;;11.43;6.72;;;;;;;4.59;79.40;101547.50;5111807;28;20032;-77
2022/02/27 04:13:36;;;;;;;10.48;7.03;;;;;;;4.48;79.37;101516.09;5111618;28;20661;-76
2022/02/27 04:16:02;;;;;;;12.77;6.55;;;;;;;4.57;79.02;101536.94;5111206;28;20031;-77
2022/02/27 04:18:28;;;;;;;16.40;7.00;;;;;;;4.63;78.88;101543.78;5111234;28;20027;-77
2022/02/27 04:20:53;;;;;;;9.55;6.45;;;;;;;4.63;78.81;101543.78;5111173;28;20019;-77
2022/02/27 04:23:18;;;;;;;15.23;7.35;;;;;;;4.63;78.59;101547.31;5111238;28;20035;-76
2022/02/27 04:25:44;;;;;;;10.20;7.25;;;;;;;4.64;78.38;101548.16;5110845;28;20035;-78
2022/02/27 04:28:10;;;;;;;12.07;6.72;;;;;;;4.57;78.21;101526.31;5111233;28;20034;-76
2022/02/27 04:30:35;;;;;;;14.80;6.63;;;;;;;4.65;78.31;101549.91;5110028;28;20100;-77
2022/02/27 04:33:02;;;;;;;11.07;6.68;;;;;;;4.64;78.06;101548.16;5108170;28;20053;-77
2022/02/27 04:35:28;;;;;;;13.40;7.25;;;;;;;4.66;78.08;101556.94;5109396;28;20020;-77
2022/02/27 04:37:54;;;;;;;12.57;6.93;;;;;;;4.63;77.94;101555.28;5109596;28;20042;-77
2022/02/27 04:40:19;;;;;;;14.38;6.72;;;;;;;4.62;77.60;101545.56;5108251;28;20110;-78
2022/02/27 04:42:44;;;;;;;11.13;6.43;;;;;;;4.64;77.40;101548.16;5108509;28;20023;-77
2022/02/27 04:45:11;;;;;;;11.73;6.43;;;;;;;4.65;76.97;101544.59;5108469;28;20530;-77
2022/02/27 04:47:36;;;;;;;14.10;6.50;;;;;;;4.69;77.11;101559.47;5109683;28;20030;-76
2022/02/27 04:50:04;;;;;;;14.95;7.15;;;;;;;4.53;77.20;101535.38;5109406;28;20015;-77
2022/02/27 04:52:29;;;;;;;9.95;6.45;;;;;;;4.54;77.08;101541.53;5109615;28;20459;-78
2022/02/27 04:54:55;;;;;;;10.85;6.13;;;;;;;4.67;77.11;101566.63;5109307;28;20118;-75
2022/02/27 04:57:20;;;;;;;11.10;7.65;;;;;;;4.53;77.03;101535.38;5109480;28;20023;-77
2022/02/27 04:59:46;;;;;;;16.38;7.60;;;;;;;4.63;77.05;101565.91;5109328;28;20019;-77
2022/02/27 05:02:11;;;;;;;11.52;6.95;;;;;;;4.59;76.88;101556.31;5109916;28;20049;-78
2022/02/27 05:04:36;;;;;;;14.23;6.88;;;;;;;4.61;76.69;101553.59;5108998;27;20692;-71
2022/02/27 05:07:03;;;;;;;13.30;7.35;;;;;;;4.61;77.11;101562.44;5108586;28;20039;-71
2022/02/27 05:09:29;;;;;;;14.35;6.97;;;;;;;4.67;76.88;101577.25;5108554;28;20444;-71
2022/02/27 05:11:55;;;;;;;12.18;6.68;;;;;;;4.66;76.78;101568.44;5108361;28;20478;-71
2022/02/27 05:14:20;;;;;;;13.52;6.70;;;;;;;4.67;76.88;101571.94;5108461;28;20023;-70
2022/02/27 05:16:46;;;;;;;12.02;7.65;;;;;;;4.69;76.85;101570.09;5107467;28;20024;-70
2022/02/27 05:19:13;;;;;;;11.40;6.32;;;;;;;4.64;76.45;101566.75;5108315;28;20035;-71
2022/02/27 05:21:38;;;;;;;11.60;6.10;;;;;;;4.71;76.56;101576.22;5107811;28;20035;-72
2022/02/27 05:24:04;;;;;;;9.43;6.78;;;;;;;4.74;76.49;101573.38;5107461;28;20416;-72
2022/02/27 05:26:30;;;;;;;12.93;6.68;;;;;;;4.73;76.63;101585.84;5108907;28;20023;-72
2022/02/27 05:28:55;;;;;;;10.88;6.25;;;;;;;4.72;76.69;101577.94;5107186;28;20027;-70
2022/02/27 05:31:21;;;;;;;10.05;6.57;;;;;;;4.60;76.34;101562.50;5108713;28;20063;-71
2022/02/27 05:33:46;;;;;;;10.18;6.80;;;;;;;4.68;76.42;101569.22;5108064;28;20036;-72
2022/02/27 05:36:12;;;;;;;12.02;6.68;;;;;;;4.77;75.91;101594.53;5108027;28;20085;-72
2022/02/27 05:38:37;;;;;;;9.57;6.03;;;;;;;4.75;75.56;101591.09;5108341;28;20048;-71
2022/02/27 05:41:03;;;;;;;10.90;5.75;;;;;;;4.80;75.02;101599.69;5107274;28;20023;-71
2022/02/27 05:43:28;;;;;;;12.07;7.00;;;;;;;4.78;75.11;101596.28;5108769;28;20401;-72
2022/02/27 05:45:54;;;;;;;12.85;6.13;;;;;;;4.81;74.49;101601.44;5108111;28;20088;-70
2022/02/27 05:48:19;;;;;;;10.60;6.00;;;;;;;4.82;73.68;101595.19;5108686;28;20035;-71
2022/02/27 05:50:45;;;;;;;13.57;6.57;;;;;;;4.69;73.86;101578.06;5109088;28;20474;-71
2022/02/27 05:53:11;;;;;;;10.25;7.07;;;;;;;4.78;72.65;101600.72;5106930;28;20471;-72
2022/02/27 05:55:36;;;;;;;12.32;6.28;;;;;;;4.72;72.28;101589.44;5107191;28;20047;-71
2022/02/27 05:58:03;;;;;;;12.45;6.30;;;;;;;4.74;72.29;101594.66;5108589;28;20032;-71
2022/02/27 06:00:28;;;;;;;10.85;6.50;;;;;;;4.85;71.86;101612.78;5108547;28;20030;-71
2022/02/27 06:02:54;;;;;;;11.65;6.65;;;;;;;4.77;71.27;101602.50;5106996;28;20024;-70
2022/02/27 06:05:20;;;;;;;11.23;6.35;;;;;;;4.86;70.97;101617.19;5107089;28;20031;-71
2022/02/27 06:07:45;;;;;;;14.90;6.82;;;;;;;4.83;70.55;101623.50;5107648;28;20137;-71
2022/02/27 06:10:12;;;;;;;11.10;6.32;;;;;;;4.84;70.10;101627.03;5106694;28;20127;-70
2022/02/27 06:12:38;;;;;;;16.42;8.07;;;;;;;4.91;70.02;101632.00;5107104;28;20101;-71
2022/02/27 06:15:04;;;;;;;18.23;8.27;;;;;;;4.88;69.67;101636.59;5108399;28;20394;-71
2022/02/27 06:17:29;;;;;;;12.80;6.97;;;;;;;4.93;69.24;101634.59;5108525;28;20024;-71
2022/02/27 06:19:55;;;;;;;10.63;6.43;;;;;;;4.94;68.89;101631.88;5108476;28;20084;-71
2022/02/27 06:22:21;;;;;;;14.52;6.75;;;;;;;4.96;68.50;101637.13;5104549;28;20042;-72
2022/02/27 06:24:46;;;;;;;12.93;7.22;;;;;;;4.86;67.96;101620.69;5107165;28;20031;-70
2022/02/27 06:27:12;;;;;;;12.50;6.50;;;;;;;4.85;67.97;101626.97;5108461;28;20024;-71
2022/02/27 06:29:37;;;;;;;18.05;7.55;;;;;;;4.86;67.74;101622.50;5108310;28;20038;-71
2022/02/27 06:32:03;;;;;;;12.45;6.60;;;;;;;4.96;67.73;101640.63;5108530;28;20023;-70
2022/02/27 06:34:29;;;;;;;12.07;6.47;;;;;;;4.98;67.57;101651.19;5108447;28;20032;-71
2022/02/27 06:36:54;;;;;;;10.48;6.53;;;;;;;4.96;67.49;101651.25;5108062;28;20015;-71
2022/02/27 06:39:20;;;;;;;16.70;7.38;;;;;;;5.00;67.05;101646.69;5108189;28;20036;-72
2022/02/27 06:41:45;;;;;;;16.27;7.50;;;;;;;5.04;66.70;101659.78;5108505;28;20059;-72
2022/02/27 06:44:11;;;;;;;13.70;7.13;;;;;;;4.92;66.27;101639.03;5108017;28;20039;-70
2022/02/27 06:46:36;;;;;;;14.05;7.43;;;;;;;4.98;66.51;101651.19;5108230;28;20049;-71
2022/02/27 06:49:02;;;;;;;11.32;6.72;;;;;;;5.06;65.92;101663.22;5108485;28;20107;-71
2022/02/27 06:51:35;;;;;;;12.27;6.90;;;;;;;4.99;65.67;101653.78;5111901;28;20115;-75
2022/02/27 06:54:00;;;;;;;11.32;7.07;;;;;;;5.10;65.29;101672.81;5112303;28;20031;-71
2022/02/27 06:56:27;;;;;;;14.57;6.70;;;;;;;5.13;65.12;101682.44;5111473;28;20063;-72
2022/02/27 06:58:55;;;;;;;18.55;7.90;;;;;;;5.11;64.67;101676.31;5111295;28;20475;-72
2022/02/27 07:01:21;;;;;;;12.18;7.03;;;;;;;5.09;64.01;101675.53;5112119;28;20129;-71
2022/02/27 07:03:46;;;;;;;13.27;6.78;;;;;;;5.18;63.25;101680.44;5112165;28;20027;-71
2022/02/27 07:06:12;;;;;;;13.88;6.53;;;;;;;5.20;62.85;101681.25;5111936;28;20031;-71
2022/02/27 07:08:37;;;;;;;12.95;7.30;;;;;;;5.18;62.65;101667.13;5111710;28;20118;-71
2022/02/27 07:11:03;;;;;;;15.15;6.65;;;;;;;5.15;61.92;101668.16;5111765;28;20142;-71
2022/02/27 07:13:30;;;;;;;13.73;7.43;;;;;;;5.27;61.81;101691.53;5110199;28;20065;-70
2022/02/27 07:15:55;;;;;;;11.95;6.95;;;;;;;5.04;61.92;101659.78;5110126;28;20111;-72
2022/02/27 07:18:21;;;;;;;14.63;8.15;;;;;;;5.24;62.04;101683.69;5112220;28;20023;-76
2022/02/27 07:20:46;;;;;;;11.45;6.90;;;;;;;5.23;61.78;101679.31;5112594;28;20055;-77
2022/02/27 07:23:11;;;;;;;12.75;7.53;;;;;;;5.27;62.26;101688.88;5111226;28;20130;-76
2022/02/27 07:25:38;;;;;;;18.05;9.05;;;;;;;5.32;63.07;101702.81;5110545;28;20062;-77
2022/02/27 07:28:05;;;;;;;18.30;8.85;;;;;;;5.25;63.39;101677.44;5110692;28;20372;-76
2022/02/27 07:30:30;;;;;;;29.00;15.02;;;;;;;5.26;63.52;101686.28;5111183;28;20119;-77
2022/02/27 07:32:56;;;;;;;47.45;24.20;;;;;;;5.27;63.47;101696.00;5109640;28;20110;-76
2022/02/27 07:35:21;;;;;;;24.45;12.27;;;;;;;5.19;63.00;101685.69;5110887;28;20039;-78
2022/02/27 07:37:47;;;;;;;18.85;10.18;;;;;;;5.22;63.74;101696.19;5111160;28;20023;-75
2022/02/27 07:40:12;;;;;;;17.02;8.50;;;;;;;5.20;62.68;101707.84;5109776;27;20431;-76
2022/02/27 07:42:38;;;;;;;20.40;9.15;;;;;;;5.19;61.87;101712.28;5111200;28;20020;-77
2022/02/27 07:45:04;;;;;;;17.27;9.77;;;;;;;5.13;61.57;101701.94;5110005;28;20023;-77
2022/02/27 07:47:30;;;;;;;19.45;9.63;;;;;;;5.09;60.21;101700.31;5111193;28;20436;-77
2022/02/27 07:49:55;;;;;;;22.02;10.82;;;;;;;5.15;59.59;101718.66;5110918;28;20028;-79
2022/02/27 07:52:30;;;;;;;20.83;8.98;;;;;;;5.06;59.15;101712.91;5110936;27;20039;-75
2022/02/27 07:54:55;;;;;;;18.70;8.48;;;;;;;5.09;58.65;101718.94;5110349;28;20390;-77
2022/02/27 07:57:21;;;;;;;17.98;8.85;;;;;;;5.11;58.75;101714.41;5110375;27;20039;-75
2022/02/27 07:59:46;;;;;;;19.80;9.25;;;;;;;5.04;58.51;101710.31;5110822;28;20034;-76
2022/02/27 08:02:12;;;;;;;20.38;9.15;;;;;;;5.01;58.14;101702.47;5109012;27;20112;-78
2022/02/27 08:04:37;;;;;;;18.67;8.45;;;;;;;4.86;58.19;101687.16;5110777;28;20020;-77
2022/02/27 08:07:03;;;;;;;15.52;8.48;;;;;;;5.06;58.35;101711.09;5110052;27;20031;-78
2022/02/27 08:09:28;;;;;;;17.83;9.20;;;;;;;5.04;57.79;101717.41;5109059;28;20035;-77
2022/02/27 08:11:54;;;;;;;16.05;8.27;;;;;;;5.08;57.95;101719.88;5110052;27;20063;-74
2022/02/27 08:14:19;;;;;;;17.80;9.52;;;;;;;5.09;58.20;101726.06;5106975;28;20035;-77
2022/02/27 08:16:45;;;;;;;16.95;8.75;;;;;;;5.12;57.39;101732.09;5108539;27;20149;-77
2022/02/27 08:19:10;;;;;;;27.30;10.63;;;;;;;5.06;57.96;101710.25;5107143;28;20027;-73
2022/02/27 08:21:36;;;;;;;17.30;8.50;;;;;;;5.04;57.73;101725.38;5108574;28;20023;-71
2022/02/27 08:24:01;;;;;;;20.17;8.50;;;;;;;5.06;57.66;101720.88;5107411;27;20031;-72
2022/02/27 08:26:27;;;;;;;17.35;9.13;;;;;;;5.01;57.70;101715.75;5108002;28;20031;-73
2022/02/27 08:28:52;;;;;;;21.90;9.00;;;;;;;5.09;57.72;101734.88;5108338;27;20039;-72
2022/02/27 08:31:18;;;;;;;16.30;8.23;;;;;;;4.99;57.64;101716.75;5107648;28;20048;-72
2022/02/27 08:33:43;;;;;;;18.13;8.77;;;;;;;5.00;57.46;101721.97;5107690;27;20071;-72
2022/02/27 08:36:09;;;;;;;14.70;8.10;;;;;;;4.99;57.76;101736.22;5106445;28;20046;-72
2022/02/27 08:38:34;;;;;;;16.90;8.68;;;;;;;4.98;57.40;101730.94;5107444;27;20035;-73
2022/02/27 08:41:00;;;;;;;21.27;9.25;;;;;;;4.99;57.77;101722.06;5108010;28;20035;-74
2022/02/27 08:43:26;;;;;;;25.08;8.93;;;;;;;4.98;57.57;101734.50;5105629;27;20071;-71
2022/02/27 08:45:52;;;;;;;19.13;9.77;;;;;;;5.07;57.81;101750.06;5106790;28;20030;-72
2022/02/27 08:48:17;;;;;;;19.33;9.75;;;;;;;5.01;57.23;101738.81;5107012;27;20031;-73
2022/02/27 08:50:43;;;;;;;15.00;8.90;;;;;;;5.04;57.34;101742.22;5108116;27;20091;-73
2022/02/27 08:53:08;;;;;;;23.15;9.38;;;;;;;5.02;56.87;101735.22;5106896;28;20510;-72
2022/02/27 08:55:34;;;;;;;23.98;9.10;;;;;;;5.09;57.00;101747.34;5105650;28;20043;-71
2022/02/27 08:57:59;;;;;;;19.88;9.38;;;;;;;4.98;56.75;101718.53;5107660;28;20138;-71
2022/02/27 09:00:25;;;;;;;23.77;9.15;;;;;;;5.02;56.62;101725.44;5107310;27;20096;-72
2022/02/27 09:02:50;;;;;;;19.60;9.02;;;;;;;5.16;56.53;101743.47;5107989;28;20048;-71
2022/02/27 09:05:16;;;;;;;20.08;8.82;;;;;;;5.18;55.94;101741.59;5106697;27;20419;-71
2022/02/27 09:07:41;;;;;;;24.48;8.63;;;;;;;5.14;55.88;101735.56;5107292;28;20471;-73
2022/02/27 09:10:08;;;;;;;20.48;8.20;;;;;;;5.20;55.57;101745.94;5105111;27;20047;-77
2022/02/27 09:12:34;;;;;;;21.70;8.80;;;;;;;5.18;55.96;101731.84;5108998;28;20031;-78
2022/02/27 09:15:00;;;;;;;18.17;7.03;;;;;;;5.28;54.96;101738.47;5107761;27;20551;-76
2022/02/27 09:17:26;;;;;;;18.38;7.07;;;;;;;5.31;54.76;101742.78;5109419;28;20024;-78
2022/02/27 09:19:51;;;;;;;15.13;7.07;;;;;;;5.32;54.93;101733.91;5108999;28;20032;-77
2022/02/27 09:22:17;;;;;;;17.30;6.43;;;;;;;5.44;54.30;101744.88;5108452;28;20023;-77
2022/02/27 09:24:42;;;;;;;14.90;6.00;;;;;;;5.49;53.82;101742.00;5108987;28;20023;-78
2022/02/27 09:27:08;;;;;;;16.83;8.30;;;;;;;5.49;53.72;101729.56;5108539;27;20048;-76
2022/02/27 09:29:33;;;;;;;13.15;5.78;;;;;;;5.59;53.62;101745.97;5109835;28;20058;-78
2022/02/27 09:31:59;;;;;;;13.88;7.15;;;;;;;5.63;53.25;101742.25;5107361;28;20096;-78
2022/02/27 09:34:25;;;;;;;13.57;6.32;;;;;;;5.67;53.05;101742.03;5108664;28;20046;-78
2022/02/27 09:36:51;;;;;;;14.07;6.63;;;;;;;5.71;53.22;101732.13;5109806;28;20055;-79
2022/02/27 09:39:16;;;;;;;13.27;5.65;;;;;;;5.75;53.20;101742.56;5109185;28;20136;-77
2022/02/27 09:41:42;;;;;;;11.05;5.60;;;;;;;5.80;52.81;101734.38;5109648;27;20035;-78
2022/02/27 09:44:09;;;;;;;14.55;6.53;;;;;;;5.76;52.34;101728.31;5109143;28;20106;-77
2022/02/27 09:46:36;;;;;;;18.73;6.45;;;;;;;5.86;52.21;101734.97;5108115;28;20621;-77
2022/02/27 09:49:03;;;;;;;11.02;5.95;;;;;;;5.84;52.26;101734.16;5108565;28;20023;-78
2022/02/27 09:51:29;;;;;;;15.68;6.28;;;;;;;5.88;52.34;101732.25;5106157;27;20061;-73
2022/02/27 09:53:55;;;;;;;12.80;6.38;;;;;;;5.97;52.24;101735.34;5104155;28;20040;-72
2022/02/27 09:56:21;;;;;;;12.88;5.38;;;;;;;5.93;52.84;101736.41;5106733;28;20127;-72
2022/02/27 09:58:46;;;;;;;14.07;5.60;;;;;;;6.06;53.19;101745.56;5107055;27;20058;-72
2022/02/27 10:01:14;;;;;;;11.30;4.75;;;;;;;6.10;53.33;101743.63;5106388;28;20035;-73
2022/02/27 10:03:41;;;;;;;13.73;6.18;;;;;;;6.21;52.30;101731.53;5107288;27;20084;-78
2022/02/27 10:06:18;;;;;;;11.75;5.03;;;;;;;6.29;53.08;101758.66;5107326;28;20023;-77
2022/02/27 10:08:49;;;;;;;11.90;4.90;;;;;;;6.27;52.81;101747.25;5108684;27;20043;-77
2022/02/27 10:11:18;;;;;;;12.02;5.05;;;;;;;6.33;52.50;101749.63;5108276;28;20134;-78
2022/02/27 10:13:46;;;;;;;11.52;5.68;;;;;;;6.34;52.57;101745.13;5106468;28;20039;-78
2022/02/27 10:16:29;;;;;;;17.73;5.82;;;;;;;6.24;52.50;101719.88;5108205;28;20042;-77
2022/02/27 10:19:00;;;;;;;10.57;5.25;;;;;;;6.35;52.67;101722.88;5106909;27;20061;-75
2022/02/27 10:21:27;;;;;;;14.80;5.78;;;;;;;6.47;53.09;101743.59;5105563;28;20483;-77
2022/02/27 10:24:01;;;;;;;15.77;5.47;;;;;;;6.52;52.08;101726.44;5108087;28;20157;-77
2022/02/27 10:26:34;;;;;;;11.70;4.72;;;;;;;6.49;51.98;101713.25;5112141;28;20132;-79
2022/02/27 10:29:03;;;;;;;8.77;5.07;;;;;;;6.59;52.33;101717.25;5112667;27;20020;-76
2022/02/27 10:31:29;;;;;;;14.52;5.43;;;;;;;6.66;51.82;101721.31;5111894;28;20313;-78
2022/02/27 10:34:20;;;;;;;10.52;4.88;;;;;;;6.71;51.38;101705.09;5112947;27;20145;-79
2022/02/27 10:37:06;;;;;;;10.00;5.45;;;;;;;6.82;51.81;101730.28;5110619;28;20440;-79
2022/02/27 10:39:38;;;;;;;18.23;5.60;;;;;;;6.81;51.51;101717.03;5111437;27;20039;-77
2022/02/27 10:42:21;;;;;;;12.88;5.25;;;;;;;6.91;51.42;101713.81;5109762;28;20034;-77
2022/02/27 10:44:58;;;;;;;13.32;6.25;;;;;;;6.98;51.01;101725.03;5111476;27;20076;-78
2022/02/27 10:47:30;;;;;;;14.88;6.38;;;;;;;6.98;50.92;101699.25;5110511;28;20031;-79
2022/02/27 10:50:03;;;;;;;9.40;4.85;;;;;;;7.17;50.95;101706.28;5111430;27;20038;-78
2022/02/27 10:52:32;;;;;;;12.70;5.97;;;;;;;7.25;50.15;101690.75;5111275;28;20035;-79
2022/02/27 10:55:07;;;;;;;13.05;5.65;;;;;;;7.33;49.47;101684.06;5110986;28;20046;-79
2022/02/27 10:57:33;;;;;;;13.60;5.03;;;;;;;7.54;49.25;101695.41;5109079;28;20050;-77
2022/02/27 11:00:29;;;;;;;14.43;5.43;;;;;;;7.67;49.00;101681.31;5110029;27;20035;-80
2022/02/27 11:02:58;;;;;;;10.68;4.72;;;;;;;7.72;48.74;101675.72;5108114;28;20138;-77
2022/02/27 11:05:27;;;;;;;11.25;5.05;;;;;;;7.83;48.89;101684.03;5110975;27;20016;-78
2022/02/27 11:07:57;;;;;;;15.98;5.00;;;;;;;7.87;49.01;101686.41;5111081;28;20023;-78
2022/02/27 11:10:26;;;;;;;10.32;4.90;;;;;;;7.82;49.25;101672.47;5111269;28;20031;-79
2022/02/27 11:12:52;;;;;;;14.88;5.20;;;;;;;7.95;49.20;101672.63;5111750;28;20256;-79
2022/02/27 11:15:22;;;;;;;11.10;4.63;;;;;;;7.95;49.01;101662.81;5110041;28;20095;-78
2022/02/27 11:17:48;;;;;;;6.80;3.83;;;;;;;8.06;49.03;101672.94;5109827;28;20487;-77
2022/02/27 11:20:16;;;;;;;11.23;5.30;;;;;;;8.24;48.69;101661.22;5111333;28;20023;-78